Time;durP1;ratioP1;P1;durP2;ratioP2;P2;SDS_P1;SDS_P2;PMS_P1;PMS_P2;Temp;Humidity;BMP_temperature;BMP_pressure;BME280_temperature;BME280_humidity;BME280_pressure;Samples;Min_cycle;Max_cycle;Signal;HPM_P1;HPM_P2
2022/07/26 00:02:05;;;;;;;20.95;3.83;;;19.80;99.90;;;;;;5074054;28;20092;-73
2022/07/26 00:04:31;;;;;;;20.42;3.92;;;19.80;99.90;;;;;;5073708;28;20078;-72
2022/07/26 00:06:56;;;;;;;21.70;4.15;;;19.80;99.90;;;;;;5073801;28;20040;-73
2022/07/26 00:09:22;;;;;;;18.30;3.33;;;19.80;99.90;;;;;;5073713;28;20043;-72
2022/07/26 00:11:48;;;;;;;19.88;3.72;;;19.80;99.90;;;;;;5073656;28;20093;-72
2022/07/26 00:14:14;;;;;;;16.75;4.35;;;19.80;99.90;;;;;;5073453;28;20053;-72
2022/07/26 00:16:40;;;;;;;17.80;3.65;;;19.80;99.90;;;;;;5073556;28;20039;-72
2022/07/26 00:19:06;;;;;;;20.95;4.45;;;19.80;99.90;;;;;;5072347;28;20409;-72
2022/07/26 00:21:36;;;;;;;23.60;3.75;;;19.70;99.90;;;;;;5056860;28;20043;-72
2022/07/26 00:24:05;;;;;;;17.42;3.80;;;19.80;99.90;;;;;;5073341;28;20068;-72
2022/07/26 00:26:31;;;;;;;18.50;3.80;;;19.80;99.90;;;;;;5073582;28;20044;-72
2022/07/26 00:28:57;;;;;;;19.17;3.97;;;19.80;99.90;;;;;;5073505;28;20040;-72
2022/07/26 00:31:23;;;;;;;17.70;3.72;;;19.80;99.90;;;;;;5073238;28;20543;-72
2022/07/26 00:33:48;;;;;;;22.77;4.20;;;19.70;99.90;;;;;;5073297;28;20051;-72
2022/07/26 00:36:14;;;;;;;16.95;3.88;;;19.70;99.90;;;;;;5073139;28;20040;-72
2022/07/26 00:38:40;;;;;;;17.92;3.58;;;19.70;99.90;;;;;;5073082;28;20047;-72
2022/07/26 00:41:06;;;;;;;15.90;3.40;;;19.70;99.90;;;;;;5074866;28;20039;-72
2022/07/26 00:43:32;;;;;;;19.20;3.25;;;19.70;99.90;;;;;;5072994;28;20044;-73
2022/07/26 00:45:58;;;;;;;19.73;3.72;;;19.60;99.90;;;;;;5072964;28;20048;-72
2022/07/26 00:48:24;;;;;;;19.55;3.83;;;19.60;99.90;;;;;;5072903;28;20040;-72
2022/07/26 00:50:52;;;;;;;16.55;3.15;;;19.60;99.90;;;;;;5072822;28;20047;-72
2022/07/26 00:53:22;;;;;;;19.30;3.70;;;19.60;99.90;;;;;;5072691;28;20048;-72
2022/07/26 00:55:48;;;;;;;17.60;3.80;;;19.60;99.90;;;;;;5072686;28;20049;-72
2022/07/26 00:58:14;;;;;;;21.52;3.80;;;19.50;99.90;;;;;;5072623;28;20046;-72
2022/07/26 01:00:40;;;;;;;16.25;3.53;;;19.60;99.90;;;;;;5072911;28;20417;-73
2022/07/26 01:03:06;;;;;;;16.88;3.22;;;19.60;99.90;;;;;;5072885;28;20040;-73
2022/07/26 01:05:31;;;;;;;17.10;3.85;;;19.60;99.90;;;;;;5072462;28;20400;-72
2022/07/26 01:07:57;;;;;;;13.68;3.10;;;19.50;99.90;;;;;;5072796;28;20041;-72
2022/07/26 01:10:24;;;;;;;17.10;3.55;;;19.50;99.90;;;;;;5072493;28;20040;-72
2022/07/26 01:12:49;;;;;;;15.68;3.30;;;19.50;99.90;;;;;;5072455;28;20051;-72
2022/07/26 01:15:16;;;;;;;15.45;3.15;;;19.50;99.90;;;;;;5072315;28;20044;-72
2022/07/26 01:17:43;;;;;;;15.57;3.13;;;19.50;99.90;;;;;;5072369;28;20037;-72
2022/07/26 01:20:10;;;;;;;15.98;3.67;;;19.40;99.90;;;;;;5072159;28;20420;-72
2022/07/26 01:22:36;;;;;;;13.63;2.58;;;19.40;99.90;;;;;;5072277;28;20036;-72
2022/07/26 01:25:03;;;;;;;19.52;3.88;;;19.30;99.90;;;;;;5072179;28;20408;-72
2022/07/26 01:27:29;;;;;;;14.63;3.08;;;19.30;99.90;;;;;;5072231;28;20135;-72
2022/07/26 01:29:54;;;;;;;17.63;3.30;;;19.30;99.90;;;;;;5072250;28;20127;-73
2022/07/26 01:32:20;;;;;;;18.13;3.42;;;19.20;99.90;;;;;;5072068;28;20451;-73
2022/07/26 01:34:45;;;;;;;12.63;3.20;;;19.20;99.90;;;;;;5072413;28;20045;-72
2022/07/26 01:37:11;;;;;;;18.23;3.80;;;19.20;99.90;;;;;;5072045;28;20033;-72
2022/07/26 01:39:37;;;;;;;18.38;3.83;;;19.20;99.90;;;;;;5072004;28;20045;-72
2022/07/26 01:42:03;;;;;;;13.82;3.13;;;19.10;99.90;;;;;;5072015;28;20040;-72
2022/07/26 01:44:28;;;;;;;16.33;3.20;;;19.10;99.90;;;;;;5073171;28;20055;-72
2022/07/26 01:46:54;;;;;;;14.45;2.63;;;19.00;99.90;;;;;;5055552;28;20497;-72
2022/07/26 01:49:19;;;;;;;14.13;2.78;;;19.00;99.90;;;;;;5071862;28;20404;-72
2022/07/26 01:51:45;;;;;;;11.63;2.75;;;19.00;99.90;;;;;;5073403;28;20094;-73
2022/07/26 01:54:11;;;;;;;11.43;2.45;;;19.00;99.90;;;;;;5071731;28;20050;-73
2022/07/26 01:56:36;;;;;;;14.50;2.85;;;19.00;99.90;;;;;;5055378;28;20028;-73
2022/07/26 01:59:02;;;;;;;13.63;2.67;;;19.00;99.90;;;;;;5071770;28;20440;-73
2022/07/26 02:01:28;;;;;;;12.35;2.80;;;19.00;99.90;;;;;;5071794;28;20558;-73
2022/07/26 02:03:54;;;;;;;12.88;2.22;;;19.00;99.90;;;;;;5071695;28;20040;-73
2022/07/26 02:06:19;;;;;;;15.57;2.30;;;19.00;99.90;;;;;;5071750;28;20032;-73
2022/07/26 02:08:45;;;;;;;14.10;2.20;;;19.10;99.90;;;;;;5071710;28;20045;-72
2022/07/26 02:11:11;;;;;;;11.63;2.30;;;19.10;99.90;;;;;;5071697;28;20041;-73
2022/07/26 02:13:38;;;;;;;10.20;2.20;;;19.10;99.90;;;;;;5071693;28;20048;-73
2022/07/26 02:16:07;;;;;;;6.88;1.95;;;19.10;99.90;;;;;;5071822;28;20036;-73
2022/07/26 02:18:32;;;;;;;8.15;1.95;;;19.00;99.90;;;;;;5071578;28;20142;-73
2022/07/26 02:21:00;;;;;;;6.93;1.70;;;19.00;99.90;;;;;;5071792;28;20037;-73
2022/07/26 02:23:26;;;;;;;8.20;2.00;;;19.00;99.90;;;;;;5071871;28;20125;-73
2022/07/26 02:25:53;;;;;;;9.70;2.25;;;19.00;99.90;;;;;;5072219;28;20040;-74
2022/07/26 02:28:19;;;;;;;7.15;1.92;;;19.00;99.90;;;;;;5071732;28;20083;-72
2022/07/26 02:30:46;;;;;;;7.68;2.05;;;19.00;99.90;;;;;;5071730;28;20106;-73
2022/07/26 02:33:11;;;;;;;7.93;1.70;;;19.00;99.90;;;;;;5071618;28;20580;-73
2022/07/26 02:35:37;;;;;;;9.23;2.22;;;18.90;99.90;;;;;;5071366;28;20123;-73
2022/07/26 02:38:08;;;;;;;8.23;1.75;;;18.90;99.90;;;;;;5071412;28;20120;-73
2022/07/26 02:40:35;;;;;;;8.93;1.95;;;18.90;99.90;;;;;;5071481;28;20493;-73
2022/07/26 02:43:01;;;;;;;8.27;2.25;;;18.90;99.90;;;;;;5073031;28;20054;-73
2022/07/26 02:45:27;;;;;;;5.45;1.50;;;18.90;99.90;;;;;;5075242;28;20032;-73
2022/07/26 02:47:54;;;;;;;8.82;1.88;;;18.90;99.90;;;;;;5075783;28;20041;-73
2022/07/26 02:50:21;;;;;;;8.32;1.80;;;18.90;99.90;;;;;;5075102;28;20123;-73
2022/07/26 02:52:47;;;;;;;12.00;2.40;;;18.90;99.90;;;;;;5058356;28;20043;-73
2022/07/26 02:55:15;;;;;;;5.70;1.63;;;18.90;99.90;;;;;;5074968;28;20036;-73
2022/07/26 02:57:40;;;;;;;6.70;1.80;;;18.90;99.90;;;;;;5075033;28;20044;-73
2022/07/26 03:00:08;;;;;;;7.00;1.80;;;18.80;99.90;;;;;;5074983;28;20067;-73
2022/07/26 03:02:34;;;;;;;7.10;1.80;;;18.90;99.90;;;;;;5074932;28;20045;-73
2022/07/26 03:05:01;;;;;;;12.07;1.90;;;18.80;99.90;;;;;;5075030;28;20055;-73
2022/07/26 03:07:27;;;;;;;7.80;2.22;;;18.80;99.90;;;;;;5074907;28;20214;-73
2022/07/26 03:09:52;;;;;;;5.85;1.90;;;18.80;99.90;;;;;;5075110;28;20052;-73
2022/07/26 03:12:18;;;;;;;6.65;2.00;;;18.70;99.90;;;;;;5075064;28;20071;-73
2022/07/26 03:14:43;;;;;;;7.47;1.83;;;18.70;99.90;;;;;;5074751;28;20607;-73
2022/07/26 03:17:09;;;;;;;5.68;1.90;;;18.60;99.90;;;;;;5074643;28;20043;-73
2022/07/26 03:19:34;;;;;;;5.82;1.90;;;18.70;99.90;;;;;;5074482;28;20036;-72
2022/07/26 03:22:00;;;;;;;5.57;1.80;;;18.70;99.90;;;;;;5074587;28;20047;-72
2022/07/26 03:24:25;;;;;;;7.15;1.58;;;18.70;99.90;;;;;;5074500;28;20120;-72
2022/07/26 03:26:51;;;;;;;7.43;1.73;;;18.70;99.90;;;;;;5074505;28;20041;-73
2022/07/26 03:29:17;;;;;;;7.28;1.83;;;18.70;99.90;;;;;;5074464;28;20044;-73
2022/07/26 03:31:42;;;;;;;5.95;1.80;;;18.70;99.90;;;;;;5074416;28;20051;-73
2022/07/26 03:34:08;;;;;;;7.55;1.60;;;18.70;99.90;;;;;;5074257;28;20067;-73
2022/07/26 03:36:34;;;;;;;5.65;1.77;;;18.70;99.90;;;;;;5074322;28;20109;-73
2022/07/26 03:39:00;;;;;;;7.88;1.85;;;18.70;99.90;;;;;;5074499;28;20040;-73
2022/07/26 03:41:25;;;;;;;8.50;1.92;;;18.60;99.90;;;;;;5074282;28;20378;-73
2022/07/26 03:43:51;;;;;;;8.90;2.08;;;18.70;99.90;;;;;;5074381;28;20075;-73
2022/07/26 03:46:16;;;;;;;7.88;1.73;;;18.60;99.90;;;;;;5074131;28;20086;-73
2022/07/26 03:48:42;;;;;;;4.82;1.60;;;18.60;99.90;;;;;;5074068;28;20044;-72
2022/07/26 03:51:07;;;;;;;8.55;1.80;;;18.60;99.90;;;;;;5073997;28;20051;-72
2022/07/26 03:53:33;;;;;;;7.97;2.00;;;18.60;99.90;;;;;;5073749;28;20048;-72
2022/07/26 03:58:43;;;;;;;8.13;1.95;;;18.60;99.90;;;;;;5073902;28;20052;-72
2022/07/26 04:01:08;;;;;;;7.55;1.50;;;18.50;99.90;;;;;;5073898;28;20442;-72
2022/07/26 04:03:34;;;;;;;7.13;1.50;;;18.50;99.90;;;;;;5074345;28;20043;-72
2022/07/26 04:06:00;;;;;;;7.13;1.67;;;18.50;99.90;;;;;;5074046;28;20051;-73
2022/07/26 04:08:25;;;;;;;10.63;1.80;;;18.50;99.90;;;;;;5073685;28;20497;-73
2022/07/26 04:10:51;;;;;;;6.75;1.70;;;18.50;99.90;;;;;;5073665;28;20048;-73
2022/07/26 04:13:18;;;;;;;9.65;1.85;;;18.50;99.90;;;;;;5056900;28;20037;-73
2022/07/26 04:15:44;;;;;;;8.18;1.92;;;18.50;99.90;;;;;;5073496;28;20041;-73
2022/07/26 04:18:09;;;;;;;8.68;1.38;;;18.50;99.90;;;;;;5073534;28;20032;-73
2022/07/26 04:20:35;;;;;;;7.97;1.48;;;18.50;99.90;;;;;;5073651;28;20086;-73
2022/07/26 04:23:00;;;;;;;9.88;1.48;;;18.50;99.90;;;;;;5073398;28;20097;-72
2022/07/26 04:25:26;;;;;;;5.57;1.48;;;18.50;99.90;;;;;;5073368;28;20041;-72
2022/07/26 04:27:51;;;;;;;7.53;1.70;;;18.50;99.90;;;;;;5073532;28;20033;-72
2022/07/26 04:30:17;;;;;;;9.77;2.08;;;18.50;99.90;;;;;;5073300;28;20041;-73
2022/07/26 04:32:44;;;;;;;6.88;1.40;;;18.40;99.90;;;;;;5073529;28;20040;-73
2022/07/26 04:35:09;;;;;;;7.25;1.70;;;18.40;99.90;;;;;;5073020;28;20087;-73
2022/07/26 04:37:43;;;;;;;11.20;1.38;;;18.50;99.90;;;;;;5073212;28;20068;-73
2022/07/26 04:40:10;;;;;;;12.20;1.40;;;18.50;99.90;;;;;;5056745;28;20493;-73
2022/07/26 04:42:36;;;;;;;8.85;1.75;;;18.50;99.90;;;;;;5073035;28;20028;-73
2022/07/26 04:45:06;;;;;;;7.25;1.38;;;18.50;99.90;;;;;;5073139;28;20036;-73
2022/07/26 04:47:32;;;;;;;7.60;1.38;;;18.50;99.90;;;;;;5072893;28;20044;-73
2022/07/26 04:49:57;;;;;;;5.70;1.25;;;18.50;99.90;;;;;;5073159;28;20032;-73
2022/07/26 04:52:23;;;;;;;8.55;1.65;;;18.50;99.90;;;;;;5074066;28;20401;-73
2022/07/26 04:54:49;;;;;;;7.97;1.50;;;18.50;99.90;;;;;;5072595;28;20505;-73
2022/07/26 04:57:14;;;;;;;5.78;1.38;;;18.40;99.90;;;;;;5056113;28;20044;-73
2022/07/26 04:59:40;;;;;;;8.88;1.95;;;18.50;99.90;;;;;;5072742;28;20032;-73
2022/07/26 05:02:05;;;;;;;12.68;1.40;;;18.50;99.90;;;;;;5072644;28;20117;-73
2022/07/26 05:04:31;;;;;;;8.13;1.60;;;18.50;99.90;;;;;;5072467;28;20094;-73
2022/07/26 05:07:01;;;;;;;7.28;1.20;;;18.50;99.90;;;;;;5072118;28;20044;-73
2022/07/26 05:09:28;;;;;;;5.50;1.75;;;18.50;99.90;;;;;;5072552;28;20048;-73
2022/07/26 05:11:54;;;;;;;6.70;1.48;;;18.50;99.90;;;;;;5072483;28;20040;-74
2022/07/26 05:14:20;;;;;;;8.95;1.35;;;18.50;99.90;;;;;;5072451;28;20062;-73
2022/07/26 05:16:45;;;;;;;6.32;0.95;;;18.50;99.90;;;;;;5072413;28;20386;-73
2022/07/26 05:19:12;;;;;;;7.10;1.10;;;18.50;99.90;;;;;;5072480;28;20090;-73
2022/07/26 05:21:37;;;;;;;6.85;1.05;;;18.50;99.90;;;;;;5072323;28;20036;-73
2022/07/26 05:24:03;;;;;;;5.70;1.00;;;18.50;99.90;;;;;;5072202;28;20097;-72
2022/07/26 05:26:29;;;;;;;7.63;0.95;;;18.40;99.90;;;;;;5055659;28;20047;-73
2022/07/26 05:28:55;;;;;;;7.72;1.15;;;18.40;99.90;;;;;;5055580;28;20055;-73
2022/07/26 05:31:20;;;;;;;7.35;1.30;;;18.40;99.90;;;;;;5072185;28;20052;-73
2022/07/26 05:33:46;;;;;;;8.02;1.13;;;18.40;99.90;;;;;;5073242;28;20040;-73
2022/07/26 05:36:12;;;;;;;7.75;1.23;;;18.40;99.90;;;;;;5072317;28;20066;-73
2022/07/26 05:38:38;;;;;;;7.60;1.23;;;18.40;99.90;;;;;;5072036;28;20397;-73
2022/07/26 05:41:03;;;;;;;5.40;1.15;;;18.40;99.90;;;;;;5071981;28;20089;-73
2022/07/26 05:43:30;;;;;;;7.70;1.20;;;18.50;99.90;;;;;;5055351;28;20049;-73
2022/07/26 05:45:56;;;;;;;5.03;0.82;;;18.50;99.90;;;;;;5071890;28;20048;-73
2022/07/26 05:48:22;;;;;;;8.27;1.05;;;18.50;99.90;;;;;;5055270;28;20559;-73
2022/07/26 05:50:47;;;;;;;5.25;0.80;;;18.50;99.90;;;;;;5071886;28;20036;-73
2022/07/26 05:53:13;;;;;;;11.02;1.40;;;18.60;99.90;;;;;;5071779;28;20052;-73
2022/07/26 05:55:38;;;;;;;6.15;0.80;;;18.50;99.90;;;;;;5055109;28;20094;-73
2022/07/26 05:58:04;;;;;;;5.68;1.08;;;18.50;99.90;;;;;;5071884;28;20032;-72
2022/07/26 06:00:30;;;;;;;4.75;0.90;;;18.50;99.90;;;;;;5071902;28;20093;-72
2022/07/26 06:02:55;;;;;;;6.80;1.00;;;18.60;99.90;;;;;;5055419;28;20040;-73
2022/07/26 06:05:21;;;;;;;8.35;0.88;;;18.60;99.90;;;;;;5072541;28;20119;-72
2022/07/26 06:07:47;;;;;;;8.75;1.02;;;18.60;99.90;;;;;;5071800;28;20045;-73
2022/07/26 06:10:12;;;;;;;7.22;1.15;;;18.60;99.90;;;;;;5071864;28;20047;-73
2022/07/26 06:12:39;;;;;;;5.45;0.77;;;18.50;99.90;;;;;;5071743;28;20048;-73
2022/07/26 06:15:07;;;;;;;6.28;1.00;;;18.40;99.90;;;;;;5054889;28;20047;-73
2022/07/26 06:17:33;;;;;;;6.55;1.02;;;18.40;99.90;;;;;;5072671;28;20036;-74
2022/07/26 06:19:59;;;;;;;5.28;0.90;;;18.30;99.90;;;;;;5075849;28;20052;-73
2022/07/26 06:22:25;;;;;;;6.45;0.80;;;18.40;99.90;;;;;;5075937;28;20037;-74
2022/07/26 06:24:51;;;;;;;6.28;1.00;;;18.40;99.90;;;;;;5059289;28;20124;-73
2022/07/26 06:27:16;;;;;;;6.82;1.15;;;18.40;99.90;;;;;;5075709;28;20120;-73
2022/07/26 06:29:42;;;;;;;4.68;0.90;;;18.50;99.90;;;;;;5075667;28;20041;-74
2022/07/26 06:32:07;;;;;;;7.32;1.00;;;18.50;99.90;;;;;;5058892;28;20131;-74
2022/07/26 06:34:33;;;;;;;5.45;1.23;;;18.50;99.90;;;;;;5075429;28;20051;-73
2022/07/26 06:36:59;;;;;;;6.75;1.00;;;18.60;99.90;;;;;;5075527;28;20043;-72
2022/07/26 06:39:24;;;;;;;5.45;0.70;;;18.50;99.90;;;;;;5075752;28;20028;-69
2022/07/26 06:41:50;;;;;;;9.90;1.20;;;18.50;99.90;;;;;;5075433;28;20451;-72
2022/07/26 06:44:16;;;;;;;7.93;1.00;;;18.60;99.90;;;;;;5075552;28;20041;-72
2022/07/26 06:46:41;;;;;;;4.07;1.00;;;18.60;99.90;;;;;;5075615;28;20063;-72
2022/07/26 06:49:07;;;;;;;5.85;0.80;;;18.50;99.90;;;;;;5075317;28;20511;-71
2022/07/26 06:51:32;;;;;;;3.25;0.60;;;18.60;99.90;;;;;;5075422;28;20036;-72
2022/07/26 06:53:58;;;;;;;5.18;0.77;;;18.50;99.90;;;;;;5075263;28;20048;-72
2022/07/26 06:56:24;;;;;;;5.53;0.98;;;18.60;99.90;;;;;;5075347;28;20064;-72
2022/07/26 06:58:49;;;;;;;6.50;0.80;;;18.70;99.90;;;;;;5075411;28;20105;-72
2022/07/26 07:01:15;;;;;;;5.68;0.90;;;18.70;99.90;;;;;;5075284;28;20485;-72
2022/07/26 07:03:41;;;;;;;4.68;0.95;;;18.80;99.90;;;;;;5075266;28;20047;-72
2022/07/26 07:06:07;;;;;;;2.53;0.55;;;18.80;99.90;;;;;;5075221;28;20058;-72
2022/07/26 07:08:33;;;;;;;6.40;0.98;;;18.90;99.90;;;;;;5075186;28;20595;-72
2022/07/26 07:10:58;;;;;;;4.35;0.77;;;19.00;99.90;;;;;;5075181;28;20105;-72
2022/07/26 07:13:24;;;;;;;5.35;0.70;;;19.10;99.90;;;;;;5074773;28;20127;-72
2022/07/26 07:15:50;;;;;;;8.10;0.80;;;19.20;99.90;;;;;;5074703;28;20040;-71
2022/07/26 07:18:15;;;;;;;12.45;1.13;;;19.20;99.90;;;;;;5074778;28;20087;-74
2022/07/26 07:20:41;;;;;;;7.78;1.10;;;19.30;99.90;;;;;;5074873;28;20036;-74
2022/07/26 07:23:07;;;;;;;4.93;0.82;;;19.40;99.90;;;;;;5074621;28;20497;-73
2022/07/26 07:25:32;;;;;;;7.78;0.95;;;19.50;99.90;;;;;;5058756;28;20040;-76
2022/07/26 07:27:59;;;;;;;8.45;1.00;;;19.60;99.90;;;;;;5074355;28;20041;-74
2022/07/26 07:30:25;;;;;;;4.13;0.95;;;19.50;99.90;;;;;;5074511;28;20044;-74
2022/07/26 07:32:51;;;;;;;5.55;1.08;;;19.50;99.90;;;;;;5074478;28;20045;-73
2022/07/26 07:35:17;;;;;;;8.07;1.10;;;19.50;99.90;;;;;;5074326;28;20046;-73
2022/07/26 07:37:44;;;;;;;4.50;0.60;;;19.60;99.90;;;;;;5074647;28;20127;-73
2022/07/26 07:40:10;;;;;;;6.45;1.00;;;19.60;99.90;;;;;;5074581;28;20044;-74
2022/07/26 07:42:36;;;;;;;5.18;0.90;;;19.70;99.90;;;;;;5074554;28;20047;-73
2022/07/26 07:45:03;;;;;;;7.45;0.90;;;19.50;99.90;;;;;;5074308;28;20036;-73
2022/07/26 07:47:32;;;;;;;3.85;0.70;;;19.40;99.90;;;;;;5074220;28;20048;-73
2022/07/26 07:49:58;;;;;;;4.97;0.75;;;19.30;99.90;;;;;;5074250;28;20052;-73
2022/07/26 07:52:24;;;;;;;2.85;0.50;;;19.20;99.90;;;;;;5074232;28;20040;-73
2022/07/26 07:54:49;;;;;;;4.63;0.73;;;19.20;99.90;;;;;;5057053;28;20056;-73
2022/07/26 07:57:15;;;;;;;4.00;0.73;;;19.30;99.90;;;;;;5074041;28;20044;-73
2022/07/26 07:59:41;;;;;;;4.45;0.63;;;19.30;99.90;;;;;;5074231;28;20029;-73
2022/07/26 08:02:08;;;;;;;5.00;0.63;;;19.50;99.90;;;;;;5074228;28;20063;-73
2022/07/26 08:04:34;;;;;;;6.50;0.60;;;19.50;99.90;;;;;;5073781;28;20535;-73
2022/07/26 08:06:59;;;;;;;5.07;0.98;;;19.60;99.90;;;;;;5074087;28;20051;-73
2022/07/26 08:09:25;;;;;;;6.35;0.75;;;19.70;99.90;;;;;;5073793;28;20409;-73
2022/07/26 08:11:51;;;;;;;5.45;0.80;;;19.80;99.90;;;;;;5073774;28;20048;-73
2022/07/26 08:14:17;;;;;;;8.27;1.00;;;19.90;99.90;;;;;;5073677;28;20048;-73
2022/07/26 08:16:43;;;;;;;6.75;1.05;;;20.10;99.90;;;;;;5073698;28;20044;-73
2022/07/26 08:19:09;;;;;;;9.07;1.30;;;20.20;99.90;;;;;;5073459;28;20489;-73
2022/07/26 08:21:35;;;;;;;7.50;0.90;;;20.30;99.90;;;;;;5073640;28;20043;-73
2022/07/26 08:24:00;;;;;;;4.35;0.70;;;20.40;99.90;;;;;;5073461;28;20048;-73
2022/07/26 08:26:26;;;;;;;8.45;1.35;;;20.40;99.90;;;;;;5073542;28;20047;-73
2022/07/26 08:28:51;;;;;;;5.47;1.05;;;20.50;99.90;;;;;;5073620;28;20059;-73
2022/07/26 08:31:19;;;;;;;5.15;0.80;;;20.60;99.90;;;;;;5073366;28;20041;-74
2022/07/26 08:33:45;;;;;;;7.40;0.90;;;20.60;99.90;;;;;;5073169;28;20051;-74
2022/07/26 08:36:11;;;;;;;5.18;1.00;;;20.70;99.90;;;;;;5073345;28;20131;-73
2022/07/26 08:38:37;;;;;;;5.18;1.08;;;20.80;99.90;;;;;;5073267;28;20063;-73
2022/07/26 08:41:02;;;;;;;5.30;1.13;;;20.80;99.90;;;;;;5072312;28;20044;-73
2022/07/26 08:43:28;;;;;;;11.23;2.45;;;20.80;99.90;;;;;;5073133;28;20036;-71
2022/07/26 08:46:00;;;;;;;6.20;0.77;;;20.70;99.90;;;;;;5072985;28;20036;-73
2022/07/26 08:48:26;;;;;;;8.30;0.80;;;20.60;99.90;;;;;;5073100;28;20123;-73
2022/07/26 08:50:54;;;;;;;3.38;0.90;;;20.40;99.90;;;;;;5056339;28;20075;-73
2022/07/26 08:53:20;;;;;;;6.85;0.90;;;20.20;99.90;;;;;;5072818;28;20501;-73
2022/07/26 08:55:46;;;;;;;6.55;1.55;;;20.10;99.90;;;;;;5073157;28;20051;-72
2022/07/26 08:58:12;;;;;;;11.40;1.48;;;20.00;99.90;;;;;;5073081;28;20586;-72
2022/07/26 09:00:37;;;;;;;11.38;1.60;;;20.00;99.90;;;;;;5072796;28;20536;-72
2022/07/26 09:03:03;;;;;;;5.97;1.00;;;20.10;99.90;;;;;;5072729;28;20036;-72
2022/07/26 09:05:35;;;;;;;5.35;1.00;;;20.50;99.90;;;;;;5072867;28;20044;-72
2022/07/26 09:08:21;;;;;;;6.72;1.08;;;20.80;99.90;;;;;;5072639;28;20455;-72
2022/07/26 09:10:47;;;;;;;6.78;1.08;;;21.00;99.90;;;;;;5072488;28;20083;-72
2022/07/26 09:13:12;;;;;;;7.18;1.02;;;21.20;99.90;;;;;;5072424;28;20044;-72
2022/07/26 09:15:38;;;;;;;10.57;1.67;;;21.40;99.90;;;;;;5072671;28;20045;-72
2022/07/26 09:18:04;;;;;;;7.07;1.42;;;21.60;99.90;;;;;;5072456;28;20166;-72
2022/07/26 09:20:30;;;;;;;8.05;1.20;;;21.80;99.90;;;;;;5072577;28;20096;-72
2022/07/26 09:23:06;;;;;;;7.53;1.25;;;22.00;99.90;;;;;;5072356;28;20075;-72
2022/07/26 09:25:44;;;;;;;5.85;1.20;;;22.10;99.90;;;;;;5072552;28;20059;-72
2022/07/26 09:28:23;;;;;;;4.70;1.05;;;21.90;99.90;;;;;;5072593;28;20044;-72
2022/07/26 09:31:03;;;;;;;4.82;1.05;;;21.70;99.90;;;;;;5072228;28;20417;-72
2022/07/26 09:33:50;;;;;;;5.13;1.17;;;21.60;99.90;;;;;;5072218;28;20206;-72
2022/07/26 09:36:17;;;;;;;5.90;1.30;;;21.80;99.90;;;;;;5072372;28;20439;-72
2022/07/26 09:38:49;;;;;;;3.85;0.93;;;22.00;99.90;;;;;;5072161;28;20041;-72
2022/07/26 09:41:22;;;;;;;6.07;1.00;;;22.30;99.90;;;;;;5072272;28;20134;-71
2022/07/26 09:43:49;;;;;;;6.82;1.00;;;22.50;99.90;;;;;;5072038;28;20165;-72
2022/07/26 09:46:16;;;;;;;8.63;1.50;;;22.50;98.50;;;;;;5072029;28;20051;-72
2022/07/26 09:48:42;;;;;;;6.38;1.30;;;22.50;98.70;;;;;;5072011;28;20120;-72
2022/07/26 09:51:09;;;;;;;6.50;1.48;;;22.80;99.70;;;;;;5071848;28;20068;-72
2022/07/26 09:53:40;;;;;;;7.80;1.63;;;22.80;99.40;;;;;;5071898;28;20060;-72
2022/07/26 09:56:06;;;;;;;10.32;2.05;;;22.60;99.30;;;;;;5071915;28;20081;-72
2022/07/26 09:58:32;;;;;;;8.77;1.20;;;22.50;99.90;;;;;;5071899;28;20119;-73
2022/07/26 10:00:58;;;;;;;7.18;1.30;;;22.40;99.40;;;;;;5071926;28;20043;-73
2022/07/26 10:03:23;;;;;;;7.65;1.60;;;22.40;99.50;;;;;;5071838;28;20045;-73
2022/07/26 10:05:49;;;;;;;7.55;1.55;;;22.40;98.30;;;;;;5071755;28;20044;-73
2022/07/26 10:08:17;;;;;;;5.20;1.40;;;22.50;97.70;;;;;;5071774;28;20040;-73
2022/07/26 10:10:48;;;;;;;9.23;1.80;;;22.60;96.20;;;;;;5071783;28;20051;-73
2022/07/26 10:13:14;;;;;;;5.70;1.45;;;22.70;95.10;;;;;;5071792;28;20051;-73
2022/07/26 10:15:48;;;;;;;8.75;1.63;;;22.70;94.40;;;;;;5071577;28;20041;-73
2022/07/26 10:18:36;;;;;;;9.50;1.80;;;22.60;94.10;;;;;;5072070;28;20043;-73
2022/07/26 10:21:22;;;;;;;10.20;2.03;;;22.70;94.80;;;;;;5071856;28;20094;-73
2022/07/26 10:23:55;;;;;;;11.63;1.88;;;22.60;94.20;;;;;;5071833;28;20048;-73
2022/07/26 10:26:47;;;;;;;9.93;2.08;;;22.50;96.80;;;;;;5071638;28;20044;-71
2022/07/26 10:29:16;;;;;;;6.35;1.88;;;22.40;95.90;;;;;;5070075;28;20049;-71
2022/07/26 10:31:46;;;;;;;11.13;2.03;;;22.00;97.70;;;;;;5071832;28;20119;-72
2022/07/26 10:34:35;;;;;;;10.73;2.13;;;21.80;98.10;;;;;;5055007;28;20123;-72
2022/07/26 10:37:08;;;;;;;12.10;2.30;;;21.60;98.60;;;;;;5071801;28;20040;-72
2022/07/26 10:39:34;;;;;;;11.88;2.65;;;21.50;99.30;;;;;;5071844;28;20035;-72
2022/07/26 10:42:08;;;;;;;10.02;2.00;;;21.50;99.90;;;;;;5071493;28;20417;-72
2022/07/26 10:44:38;;;;;;;10.80;1.80;;;21.60;99.90;;;;;;5071349;28;20409;-73
2022/07/26 10:47:06;;;;;;;8.55;1.77;;;21.70;99.60;;;;;;5054768;28;20036;-73
2022/07/26 10:49:35;;;;;;;7.97;1.70;;;21.70;96.30;;;;;;5071703;28;20052;-73
2022/07/26 10:52:15;;;;;;;6.63;1.65;;;21.70;96.60;;;;;;5071337;28;20448;-72
2022/07/26 10:55:10;;;;;;;8.98;1.80;;;21.80;96.40;;;;;;5071244;28;20045;-73
2022/07/26 10:57:38;;;;;;;10.27;1.80;;;22.00;95.40;;;;;;5062899;28;20053;-73
2022/07/26 11:00:18;;;;;;;8.85;2.08;;;22.30;94.20;;;;;;5071358;28;20044;-72
2022/07/26 11:02:49;;;;;;;11.82;2.00;;;22.50;94.20;;;;;;5071565;28;20029;-72
2022/07/26 11:05:17;;;;;;;7.32;1.90;;;22.60;93.50;;;;;;5074717;28;20040;-73
2022/07/26 11:08:04;;;;;;;12.18;2.33;;;22.70;91.30;;;;;;5074949;28;20046;-74
2022/07/26 11:10:41;;;;;;;11.23;2.22;;;22.80;91.30;;;;;;5074958;28;20094;-74
2022/07/26 11:13:06;;;;;;;11.38;2.25;;;22.80;90.20;;;;;;5075164;28;20481;-74
2022/07/26 11:15:33;;;;;;;9.25;1.95;;;22.80;89.10;;;;;;5074663;28;20090;-74
2022/07/26 11:18:06;;;;;;;11.32;2.05;;;23.10;88.90;;;;;;5058078;28;20036;-73
2022/07/26 11:20:32;;;;;;;10.43;1.70;;;23.20;83.30;;;;;;5075087;28;20036;-74
2022/07/26 11:22:57;;;;;;;12.07;1.40;;;23.50;84.60;;;;;;5074679;28;20523;-73
2022/07/26 11:25:23;;;;;;;9.77;1.75;;;23.70;80.50;;;;;;5074486;28;20041;-73
2022/07/26 11:27:59;;;;;;;5.47;1.30;;;23.80;79.20;;;;;;5074629;28;20044;-73
2022/07/26 11:30:25;;;;;;;7.53;1.77;;;23.80;76.00;;;;;;5074528;28;20516;-73
2022/07/26 11:32:52;;;;;;;8.75;1.77;;;23.70;77.90;;;;;;5074774;28;20041;-73
2022/07/26 11:35:18;;;;;;;10.23;1.83;;;23.60;76.50;;;;;;5074338;28;20120;-73
2022/07/26 11:37:55;;;;;;;11.15;1.67;;;23.40;76.00;;;;;;5074406;28;20120;-73
2022/07/26 11:40:42;;;;;;;5.63;1.38;;;23.40;74.00;;;;;;5074332;28;20040;-73
2022/07/26 11:43:08;;;;;;;8.38;1.23;;;23.20;73.00;;;;;;5074317;28;20083;-73
2022/07/26 11:45:33;;;;;;;7.53;1.45;;;23.10;71.90;;;;;;5074232;28;20104;-73
2022/07/26 11:47:59;;;;;;;8.43;1.40;;;23.10;73.30;;;;;;5074201;28;20059;-73
2022/07/26 11:50:25;;;;;;;10.02;2.15;;;23.10;72.80;;;;;;5074195;28;20044;-74
2022/07/26 11:52:51;;;;;;;7.25;1.70;;;22.90;70.90;;;;;;5075350;28;20040;-74
2022/07/26 11:55:28;;;;;;;10.60;1.65;;;22.80;70.50;;;;;;5073987;28;20045;-73
2022/07/26 11:57:54;;;;;;;6.95;1.45;;;22.80;73.70;;;;;;5075330;28;20048;-73
2022/07/26 12:00:22;;;;;;;7.53;1.60;;;22.60;73.20;;;;;;5074061;28;20045;-74
2022/07/26 12:02:47;;;;;;;10.05;1.92;;;22.80;73.20;;;;;;5074267;28;20136;-74
2022/07/26 12:05:19;;;;;;;4.70;1.13;;;22.80;72.10;;;;;;5074137;28;20485;-74
2022/07/26 12:07:58;;;;;;;7.38;1.48;;;22.90;71.10;;;;;;5074166;28;20044;-73
2022/07/26 12:10:24;;;;;;;8.45;1.45;;;22.80;71.40;;;;;;5073793;28;20045;-73
2022/07/26 12:13:04;;;;;;;6.55;1.23;;;22.80;71.60;;;;;;5074042;28;20499;-73
2022/07/26 12:15:51;;;;;;;7.28;1.30;;;22.70;70.50;;;;;;5073610;28;20395;-73
2022/07/26 12:18:25;;;;;;;9.27;1.40;;;22.60;71.00;;;;;;5073747;28;20078;-73
2022/07/26 12:21:06;;;;;;;8.18;1.10;;;22.40;70.20;;;;;;5073507;28;20097;-74
2022/07/26 12:23:47;;;;;;;7.28;1.48;;;22.40;70.90;;;;;;5057136;28;20037;-73
2022/07/26 12:26:23;;;;;;;5.53;1.00;;;22.40;70.90;;;;;;5073790;28;20036;-74
2022/07/26 12:28:49;;;;;;;8.52;1.30;;;22.50;72.00;;;;;;5074097;28;20040;-74
2022/07/26 12:31:25;;;;;;;8.77;1.30;;;22.70;71.90;;;;;;5073408;28;20413;-74
2022/07/26 12:33:51;;;;;;;5.65;1.33;;;22.70;71.30;;;;;;5073250;28;20040;-73
2022/07/26 12:36:22;;;;;;;5.45;1.10;;;22.80;70.80;;;;;;5073329;28;20028;-73
2022/07/26 12:38:48;;;;;;;5.82;0.95;;;22.80;69.30;;;;;;5073554;28;20036;-74
2022/07/26 12:41:34;;;;;;;4.40;0.95;;;22.70;68.50;;;;;;5073212;28;20028;-74
2022/07/26 12:44:01;;;;;;;4.65;0.98;;;22.70;70.00;;;;;;5073341;28;20509;-73
2022/07/26 12:46:31;;;;;;;5.85;1.20;;;22.70;70.00;;;;;;5073081;28;20054;-75
2022/07/26 12:48:56;;;;;;;4.65;1.17;;;22.70;70.10;;;;;;5073385;28;20485;-74